sensor_id;sensor_type;location;lat;lon;timestamp;temperature;humidity
64817;DHT22;69411;45.656;11.740;2023-04-24T00:00:11;15.10;79.60
64817;DHT22;69411;45.656;11.740;2023-04-24T00:02:44;15.00;79.50
64817;DHT22;69411;45.656;11.740;2023-04-24T00:05:15;15.00;79.50
64817;DHT22;69411;45.656;11.740;2023-04-24T00:07:44;15.00;79.20
64817;DHT22;69411;45.656;11.740;2023-04-24T00:10:11;15.00;79.20
64817;DHT22;69411;45.656;11.740;2023-04-24T00:12:37;15.10;79.00
64817;DHT22;69411;45.656;11.740;2023-04-24T00:15:04;15.00;78.70
64817;DHT22;69411;45.656;11.740;2023-04-24T00:17:31;15.10;78.70
64817;DHT22;69411;45.656;11.740;2023-04-24T00:19:57;15.00;78.80
64817;DHT22;69411;45.656;11.740;2023-04-24T00:22:28;15.00;78.90
64817;DHT22;69411;45.656;11.740;2023-04-24T00:24:55;15.00;78.90
64817;DHT22;69411;45.656;11.740;2023-04-24T00:27:21;14.90;78.80
64817;DHT22;69411;45.656;11.740;2023-04-24T00:29:46;14.90;78.60
64817;DHT22;69411;45.656;11.740;2023-04-24T00:32:13;15.00;78.70
64817;DHT22;69411;45.656;11.740;2023-04-24T00:34:39;15.00;78.60
64817;DHT22;69411;45.656;11.740;2023-04-24T00:37:05;15.00;78.30
64817;DHT22;69411;45.656;11.740;2023-04-24T00:39:31;15.00;78.10
64817;DHT22;69411;45.656;11.740;2023-04-24T00:41:58;15.10;78.00
64817;DHT22;69411;45.656;11.740;2023-04-24T00:44:25;15.10;78.10
64817;DHT22;69411;45.656;11.740;2023-04-24T00:46:51;15.10;78.30
64817;DHT22;69411;45.656;11.740;2023-04-24T00:49:23;15.10;78.20
64817;DHT22;69411;45.656;11.740;2023-04-24T00:51:49;15.10;78.40
64817;DHT22;69411;45.656;11.740;2023-04-24T00:54:17;15.00;78.30
64817;DHT22;69411;45.656;11.740;2023-04-24T00:56:44;15.10;78.30
64817;DHT22;69411;45.656;11.740;2023-04-24T00:59:16;15.00;78.40
64817;DHT22;69411;45.656;11.740;2023-04-24T01:01:42;15.00;78.10
64817;DHT22;69411;45.656;11.740;2023-04-24T01:04:09;15.10;78.00
64817;DHT22;69411;45.656;11.740;2023-04-24T01:06:38;15.00;78.00
64817;DHT22;69411;45.656;11.740;2023-04-24T01:09:05;15.00;78.00
64817;DHT22;69411;45.656;11.740;2023-04-24T01:11:31;15.00;77.80
64817;DHT22;69411;45.656;11.740;2023-04-24T01:13:57;15.00;77.70
64817;DHT22;69411;45.656;11.740;2023-04-24T01:16:24;15.00;77.60
64817;DHT22;69411;45.656;11.740;2023-04-24T01:18:50;15.00;77.40
64817;DHT22;69411;45.656;11.740;2023-04-24T01:21:18;15.00;77.30
64817;DHT22;69411;45.656;11.740;2023-04-24T01:23:45;15.00;77.20
64817;DHT22;69411;45.656;11.740;2023-04-24T01:26:13;15.00;76.90
64817;DHT22;69411;45.656;11.740;2023-04-24T01:28:39;15.00;76.80
64817;DHT22;69411;45.656;11.740;2023-04-24T01:31:05;14.90;76.60
64817;DHT22;69411;45.656;11.740;2023-04-24T01:33:32;14.90;76.20
64817;DHT22;69411;45.656;11.740;2023-04-24T01:35:58;14.90;75.90
64817;DHT22;69411;45.656;11.740;2023-04-24T01:38:24;14.90;75.70
64817;DHT22;69411;45.656;11.740;2023-04-24T01:40:51;15.00;75.70
64817;DHT22;69411;45.656;11.740;2023-04-24T01:43:17;14.90;75.60
64817;DHT22;69411;45.656;11.740;2023-04-24T01:45:43;14.90;75.50
64817;DHT22;69411;45.656;11.740;2023-04-24T01:48:11;14.90;75.50
64817;DHT22;69411;45.656;11.740;2023-04-24T01:50:37;14.90;75.20
64817;DHT22;69411;45.656;11.740;2023-04-24T01:53:03;14.90;75.30
64817;DHT22;69411;45.656;11.740;2023-04-24T01:55:29;14.90;75.10
64817;DHT22;69411;45.656;11.740;2023-04-24T01:57:56;15.00;74.90
64817;DHT22;69411;45.656;11.740;2023-04-24T02:00:23;14.90;74.90
64817;DHT22;69411;45.656;11.740;2023-04-24T02:02:50;14.90;74.70
64817;DHT22;69411;45.656;11.740;2023-04-24T02:05:16;14.90;74.60
64817;DHT22;69411;45.656;11.740;2023-04-24T02:07:42;14.90;74.50
64817;DHT22;69411;45.656;11.740;2023-04-24T02:10:08;14.90;74.40
64817;DHT22;69411;45.656;11.740;2023-04-24T02:12:34;14.90;74.30
64817;DHT22;69411;45.656;11.740;2023-04-24T02:15:00;15.00;74.20
64817;DHT22;69411;45.656;11.740;2023-04-24T02:17:26;14.90;74.20
64817;DHT22;69411;45.656;11.740;2023-04-24T02:19:52;15.00;74.10
64817;DHT22;69411;45.656;11.740;2023-04-24T02:22:18;15.00;74.00
64817;DHT22;69411;45.656;11.740;2023-04-24T02:24:44;15.00;73.90
64817;DHT22;69411;45.656;11.740;2023-04-24T02:27:10;15.00;73.90
64817;DHT22;69411;45.656;11.740;2023-04-24T02:29:37;15.00;73.90
64817;DHT22;69411;45.656;11.740;2023-04-24T02:32:03;15.10;73.70
64817;DHT22;69411;45.656;11.740;2023-04-24T02:34:29;15.00;73.50
64817;DHT22;69411;45.656;11.740;2023-04-24T02:36:55;15.10;73.40
64817;DHT22;69411;45.656;11.740;2023-04-24T02:39:21;15.10;73.40
64817;DHT22;69411;45.656;11.740;2023-04-24T02:41:47;15.00;73.20
64817;DHT22;69411;45.656;11.740;2023-04-24T02:44:13;15.00;73.10
64817;DHT22;69411;45.656;11.740;2023-04-24T02:46:38;15.10;72.80
64817;DHT22;69411;45.656;11.740;2023-04-24T02:49:06;15.00;72.70
64817;DHT22;69411;45.656;11.740;2023-04-24T02:51:32;15.00;72.50
64817;DHT22;69411;45.656;11.740;2023-04-24T02:53:58;15.00;72.60
64817;DHT22;69411;45.656;11.740;2023-04-24T02:56:24;15.00;72.50
64817;DHT22;69411;45.656;11.740;2023-04-24T02:58:50;15.00;72.30
64817;DHT22;69411;45.656;11.740;2023-04-24T03:01:16;15.00;71.80
64817;DHT22;69411;45.656;11.740;2023-04-24T03:03:43;14.90;72.10
64817;DHT22;69411;45.656;11.740;2023-04-24T03:06:09;15.00;72.10
64817;DHT22;69411;45.656;11.740;2023-04-24T03:08:35;14.90;72.10
64817;DHT22;69411;45.656;11.740;2023-04-24T03:11:01;14.90;72.10
64817;DHT22;69411;45.656;11.740;2023-04-24T03:13:27;14.90;72.10
64817;DHT22;69411;45.656;11.740;2023-04-24T03:15:53;14.90;72.10
64817;DHT22;69411;45.656;11.740;2023-04-24T03:18:19;14.90;71.60
64817;DHT22;69411;45.656;11.740;2023-04-24T03:20:46;14.90;71.70
64817;DHT22;69411;45.656;11.740;2023-04-24T03:23:12;14.90;71.30
64817;DHT22;69411;45.656;11.740;2023-04-24T03:25:38;14.90;71.40
64817;DHT22;69411;45.656;11.740;2023-04-24T03:28:04;14.90;71.50
64817;DHT22;69411;45.656;11.740;2023-04-24T03:30:30;14.90;71.40
64817;DHT22;69411;45.656;11.740;2023-04-24T03:32:56;14.90;71.30
64817;DHT22;69411;45.656;11.740;2023-04-24T03:35:22;14.90;71.30
64817;DHT22;69411;45.656;11.740;2023-04-24T03:37:48;15.00;71.40
64817;DHT22;69411;45.656;11.740;2023-04-24T03:40:14;15.00;71.40
64817;DHT22;69411;45.656;11.740;2023-04-24T03:42:40;15.00;71.30
64817;DHT22;69411;45.656;11.740;2023-04-24T03:45:07;15.00;71.40
64817;DHT22;69411;45.656;11.740;2023-04-24T03:47:33;15.00;71.20
64817;DHT22;69411;45.656;11.740;2023-04-24T03:49:59;15.10;71.30
64817;DHT22;69411;45.656;11.740;2023-04-24T03:52:24;15.10;71.20
64817;DHT22;69411;45.656;11.740;2023-04-24T03:54:51;15.10;71.40
64817;DHT22;69411;45.656;11.740;2023-04-24T03:57:16;15.10;71.10
64817;DHT22;69411;45.656;11.740;2023-04-24T03:59:42;15.00;71.00
64817;DHT22;69411;45.656;11.740;2023-04-24T04:02:08;15.00;71.20
64817;DHT22;69411;45.656;11.740;2023-04-24T04:04:34;15.00;71.40
64817;DHT22;69411;45.656;11.740;2023-04-24T04:07:00;15.00;71.50
64817;DHT22;69411;45.656;11.740;2023-04-24T04:09:28;15.10;71.50
64817;DHT22;69411;45.656;11.740;2023-04-24T04:11:55;15.10;71.60
64817;DHT22;69411;45.656;11.740;2023-04-24T04:14:21;15.10;71.70
64817;DHT22;69411;45.656;11.740;2023-04-24T04:16:47;15.10;71.90
64817;DHT22;69411;45.656;11.740;2023-04-24T04:19:13;15.20;72.30
64817;DHT22;69411;45.656;11.740;2023-04-24T04:21:40;15.10;72.10
64817;DHT22;69411;45.656;11.740;2023-04-24T04:24:06;15.10;72.20
64817;DHT22;69411;45.656;11.740;2023-04-24T04:26:32;15.10;72.30
64817;DHT22;69411;45.656;11.740;2023-04-24T04:28:59;15.10;72.80
64817;DHT22;69411;45.656;11.740;2023-04-24T04:31:26;15.10;73.10
64817;DHT22;69411;45.656;11.740;2023-04-24T04:33:52;15.00;72.90
64817;DHT22;69411;45.656;11.740;2023-04-24T04:36:18;15.00;73.50
64817;DHT22;69411;45.656;11.740;2023-04-24T04:38:44;15.00;73.20
64817;DHT22;69411;45.656;11.740;2023-04-24T04:41:10;15.00;73.20
64817;DHT22;69411;45.656;11.740;2023-04-24T04:43:36;15.00;73.20
64817;DHT22;69411;45.656;11.740;2023-04-24T04:46:03;14.90;73.20
64817;DHT22;69411;45.656;11.740;2023-04-24T04:48:30;15.00;73.70
64817;DHT22;69411;45.656;11.740;2023-04-24T04:50:57;14.90;73.40
64817;DHT22;69411;45.656;11.740;2023-04-24T04:53:23;14.90;73.50
64817;DHT22;69411;45.656;11.740;2023-04-24T04:55:49;14.90;75.00
64817;DHT22;69411;45.656;11.740;2023-04-24T04:58:15;14.90;75.90
64817;DHT22;69411;45.656;11.740;2023-04-24T05:00:41;14.70;76.20
64817;DHT22;69411;45.656;11.740;2023-04-24T05:03:08;14.60;76.70
64817;DHT22;69411;45.656;11.740;2023-04-24T05:05:33;14.50;77.30
64817;DHT22;69411;45.656;11.740;2023-04-24T05:07:59;14.40;77.80
64817;DHT22;69411;45.656;11.740;2023-04-24T05:10:25;14.30;78.20
64817;DHT22;69411;45.656;11.740;2023-04-24T05:12:51;14.20;79.00
64817;DHT22;69411;45.656;11.740;2023-04-24T05:15:17;14.00;79.30
64817;DHT22;69411;45.656;11.740;2023-04-24T05:17:43;13.90;79.50
64817;DHT22;69411;45.656;11.740;2023-04-24T05:20:09;13.90;79.90
64817;DHT22;69411;45.656;11.740;2023-04-24T05:22:35;13.90;80.10
64817;DHT22;69411;45.656;11.740;2023-04-24T05:25:01;13.90;80.40
64817;DHT22;69411;45.656;11.740;2023-04-24T05:27:28;13.80;80.30
64817;DHT22;69411;45.656;11.740;2023-04-24T05:29:54;13.80;80.30
64817;DHT22;69411;45.656;11.740;2023-04-24T05:32:20;13.90;80.50
64817;DHT22;69411;45.656;11.740;2023-04-24T05:34:46;13.90;80.80
64817;DHT22;69411;45.656;11.740;2023-04-24T05:37:12;13.80;80.70
64817;DHT22;69411;45.656;11.740;2023-04-24T05:39:38;13.80;80.80
64817;DHT22;69411;45.656;11.740;2023-04-24T05:42:04;13.90;80.60
64817;DHT22;69411;45.656;11.740;2023-04-24T05:44:30;13.90;80.40
64817;DHT22;69411;45.656;11.740;2023-04-24T05:46:56;13.90;80.50
64817;DHT22;69411;45.656;11.740;2023-04-24T05:49:22;13.90;80.40
64817;DHT22;69411;45.656;11.740;2023-04-24T05:51:48;13.90;80.30
64817;DHT22;69411;45.656;11.740;2023-04-24T05:54:14;13.90;80.00
64817;DHT22;69411;45.656;11.740;2023-04-24T05:56:40;13.90;80.10
64817;DHT22;69411;45.656;11.740;2023-04-24T05:59:06;13.90;80.10
64817;DHT22;69411;45.656;11.740;2023-04-24T06:01:33;13.90;80.20
64817;DHT22;69411;45.656;11.740;2023-04-24T06:03:59;13.80;80.20
64817;DHT22;69411;45.656;11.740;2023-04-24T06:06:25;13.80;80.30
64817;DHT22;69411;45.656;11.740;2023-04-24T06:08:52;13.80;80.40
64817;DHT22;69411;45.656;11.740;2023-04-24T06:11:18;13.80;80.00
64817;DHT22;69411;45.656;11.740;2023-04-24T06:13:44;13.90;79.70
64817;DHT22;69411;45.656;11.740;2023-04-24T06:16:11;13.90;79.70
64817;DHT22;69411;45.656;11.740;2023-04-24T06:18:37;13.90;79.40
64817;DHT22;69411;45.656;11.740;2023-04-24T06:21:03;13.90;79.50
64817;DHT22;69411;45.656;11.740;2023-04-24T06:23:30;14.00;79.30
64817;DHT22;69411;45.656;11.740;2023-04-24T06:25:58;14.00;79.50
64817;DHT22;69411;45.656;11.740;2023-04-24T06:28:24;14.10;79.40
64817;DHT22;69411;45.656;11.740;2023-04-24T06:30:51;14.00;79.50
64817;DHT22;69411;45.656;11.740;2023-04-24T06:33:17;14.00;79.40
64817;DHT22;69411;45.656;11.740;2023-04-24T06:35:43;14.00;79.30
64817;DHT22;69411;45.656;11.740;2023-04-24T06:38:09;14.00;79.10
64817;DHT22;69411;45.656;11.740;2023-04-24T06:40:35;14.10;79.00
64817;DHT22;69411;45.656;11.740;2023-04-24T06:43:01;14.10;78.90
64817;DHT22;69411;45.656;11.740;2023-04-24T06:45:30;14.20;79.10
64817;DHT22;69411;45.656;11.740;2023-04-24T06:47:56;14.20;79.20
64817;DHT22;69411;45.656;11.740;2023-04-24T06:50:22;14.20;79.40
64817;DHT22;69411;45.656;11.740;2023-04-24T06:52:48;14.20;79.50
64817;DHT22;69411;45.656;11.740;2023-04-24T06:55:13;14.10;79.60
64817;DHT22;69411;45.656;11.740;2023-04-24T06:57:42;14.10;79.60
64817;DHT22;69411;45.656;11.740;2023-04-24T07:00:08;14.10;79.40
64817;DHT22;69411;45.656;11.740;2023-04-24T07:02:35;14.10;79.00
64817;DHT22;69411;45.656;11.740;2023-04-24T07:05:01;14.10;78.90
64817;DHT22;69411;45.656;11.740;2023-04-24T07:07:27;14.10;78.60
64817;DHT22;69411;45.656;11.740;2023-04-24T07:09:53;14.10;78.70
64817;DHT22;69411;45.656;11.740;2023-04-24T07:12:19;14.10;78.60
64817;DHT22;69411;45.656;11.740;2023-04-24T07:14:47;14.10;78.60
64817;DHT22;69411;45.656;11.740;2023-04-24T07:17:14;14.10;78.90
64817;DHT22;69411;45.656;11.740;2023-04-24T07:19:40;14.10;79.10
64817;DHT22;69411;45.656;11.740;2023-04-24T07:22:06;14.00;79.30
64817;DHT22;69411;45.656;11.740;2023-04-24T07:24:32;14.00;79.50
64817;DHT22;69411;45.656;11.740;2023-04-24T07:26:58;14.00;79.60
64817;DHT22;69411;45.656;11.740;2023-04-24T07:29:27;14.00;79.80
64817;DHT22;69411;45.656;11.740;2023-04-24T07:31:52;13.90;77.60
64817;DHT22;69411;45.656;11.740;2023-04-24T07:34:19;13.80;74.30
64817;DHT22;69411;45.656;11.740;2023-04-24T07:36:46;13.60;71.60
64817;DHT22;69411;45.656;11.740;2023-04-24T07:39:12;13.50;73.10
64817;DHT22;69411;45.656;11.740;2023-04-24T07:41:38;13.40;73.90
64817;DHT22;69411;45.656;11.740;2023-04-24T07:44:03;13.40;75.10
64817;DHT22;69411;45.656;11.740;2023-04-24T07:46:30;13.20;75.90
64817;DHT22;69411;45.656;11.740;2023-04-24T07:48:56;13.00;74.80
64817;DHT22;69411;45.656;11.740;2023-04-24T07:51:22;12.90;75.20
64817;DHT22;69411;45.656;11.740;2023-04-24T07:53:48;12.90;75.80
64817;DHT22;69411;45.656;11.740;2023-04-24T07:56:13;12.80;75.60
64817;DHT22;69411;45.656;11.740;2023-04-24T07:58:39;12.70;76.10
64817;DHT22;69411;45.656;11.740;2023-04-24T08:01:06;12.70;76.30
64817;DHT22;69411;45.656;11.740;2023-04-24T08:03:32;12.70;77.70
64817;DHT22;69411;45.656;11.740;2023-04-24T08:05:57;12.80;78.50
64817;DHT22;69411;45.656;11.740;2023-04-24T08:08:23;12.80;78.10
64817;DHT22;69411;45.656;11.740;2023-04-24T08:10:49;12.90;79.40
64817;DHT22;69411;45.656;11.740;2023-04-24T08:13:15;12.90;78.90
64817;DHT22;69411;45.656;11.740;2023-04-24T08:15:41;13.00;78.50
64817;DHT22;69411;45.656;11.740;2023-04-24T08:18:07;13.10;78.30
64817;DHT22;69411;45.656;11.740;2023-04-24T08:20:33;13.20;78.10
64817;DHT22;69411;45.656;11.740;2023-04-24T08:22:59;13.20;78.00
64817;DHT22;69411;45.656;11.740;2023-04-24T08:25:25;13.40;77.30
64817;DHT22;69411;45.656;11.740;2023-04-24T08:27:51;13.40;76.90
64817;DHT22;69411;45.656;11.740;2023-04-24T08:30:18;13.50;76.70
64817;DHT22;69411;45.656;11.740;2023-04-24T08:32:43;13.60;77.10
64817;DHT22;69411;45.656;11.740;2023-04-24T08:35:09;13.70;76.60
64817;DHT22;69411;45.656;11.740;2023-04-24T08:37:36;13.90;73.50
64817;DHT22;69411;45.656;11.740;2023-04-24T08:40:15;14.00;74.50
64817;DHT22;69411;45.656;11.740;2023-04-24T08:42:42;14.10;75.30
64817;DHT22;69411;45.656;11.740;2023-04-24T08:45:10;14.20;73.70
64817;DHT22;69411;45.656;11.740;2023-04-24T08:47:39;14.30;74.40
64817;DHT22;69411;45.656;11.740;2023-04-24T08:50:06;14.40;75.00
64817;DHT22;69411;45.656;11.740;2023-04-24T08:52:34;14.50;75.40
64817;DHT22;69411;45.656;11.740;2023-04-24T08:55:01;14.60;75.70
64817;DHT22;69411;45.656;11.740;2023-04-24T08:57:27;14.70;75.80
64817;DHT22;69411;45.656;11.740;2023-04-24T08:59:54;14.80;75.70
64817;DHT22;69411;45.656;11.740;2023-04-24T09:02:22;14.90;76.10
64817;DHT22;69411;45.656;11.740;2023-04-24T09:04:49;15.10;76.20
64817;DHT22;69411;45.656;11.740;2023-04-24T09:07:17;15.20;76.10
64817;DHT22;69411;45.656;11.740;2023-04-24T09:09:43;15.30;75.90
64817;DHT22;69411;45.656;11.740;2023-04-24T09:12:10;15.40;75.60
64817;DHT22;69411;45.656;11.740;2023-04-24T09:14:36;15.50;75.40
64817;DHT22;69411;45.656;11.740;2023-04-24T09:17:08;15.60;75.00
64817;DHT22;69411;45.656;11.740;2023-04-24T09:19:34;15.70;75.00
64817;DHT22;69411;45.656;11.740;2023-04-24T09:22:00;15.80;74.60
64817;DHT22;69411;45.656;11.740;2023-04-24T09:24:30;15.90;74.50
64817;DHT22;69411;45.656;11.740;2023-04-24T09:26:59;16.00;74.20
64817;DHT22;69411;45.656;11.740;2023-04-24T09:29:27;16.10;73.90
64817;DHT22;69411;45.656;11.740;2023-04-24T09:31:53;16.20;73.90
64817;DHT22;69411;45.656;11.740;2023-04-24T09:34:23;16.30;73.10
64817;DHT22;69411;45.656;11.740;2023-04-24T09:36:50;16.40;72.60
64817;DHT22;69411;45.656;11.740;2023-04-24T09:39:16;16.40;71.20
64817;DHT22;69411;45.656;11.740;2023-04-24T09:41:45;16.40;70.40
64817;DHT22;69411;45.656;11.740;2023-04-24T09:44:19;16.50;70.20
64817;DHT22;69411;45.656;11.740;2023-04-24T09:46:58;16.50;68.20
64817;DHT22;69411;45.656;11.740;2023-04-24T09:49:27;16.50;68.50
64817;DHT22;69411;45.656;11.740;2023-04-24T09:52:13;16.50;68.70
64817;DHT22;69411;45.656;11.740;2023-04-24T09:54:40;16.60;69.10
64817;DHT22;69411;45.656;11.740;2023-04-24T09:57:09;16.60;68.80
64817;DHT22;69411;45.656;11.740;2023-04-24T09:59:42;16.60;68.50
64817;DHT22;69411;45.656;11.740;2023-04-24T10:02:19;16.70;68.00
64817;DHT22;69411;45.656;11.740;2023-04-24T10:04:56;16.80;67.50
64817;DHT22;69411;45.656;11.740;2023-04-24T10:07:27;16.80;67.00
64817;DHT22;69411;45.656;11.740;2023-04-24T10:09:53;16.90;66.80
64817;DHT22;69411;45.656;11.740;2023-04-24T10:12:19;16.90;66.80
64817;DHT22;69411;45.656;11.740;2023-04-24T10:14:46;17.00;67.10
64817;DHT22;69411;45.656;11.740;2023-04-24T10:17:12;17.10;66.80
64817;DHT22;69411;45.656;11.740;2023-04-24T10:19:38;17.20;66.20
64817;DHT22;69411;45.656;11.740;2023-04-24T10:22:06;17.20;65.90
64817;DHT22;69411;45.656;11.740;2023-04-24T10:24:33;17.30;64.90
64817;DHT22;69411;45.656;11.740;2023-04-24T10:27:03;17.40;64.90
64817;DHT22;69411;45.656;11.740;2023-04-24T10:29:31;17.40;63.00
64817;DHT22;69411;45.656;11.740;2023-04-24T10:31:57;17.40;63.40
64817;DHT22;69411;45.656;11.740;2023-04-24T10:34:23;17.40;64.10
64817;DHT22;69411;45.656;11.740;2023-04-24T10:36:53;17.50;63.70
64817;DHT22;69411;45.656;11.740;2023-04-24T10:39:20;17.50;62.20
64817;DHT22;69411;45.656;11.740;2023-04-24T10:41:49;17.50;62.80
64817;DHT22;69411;45.656;11.740;2023-04-24T10:44:15;17.60;63.60
64817;DHT22;69411;45.656;11.740;2023-04-24T10:46:46;17.70;62.80
64817;DHT22;69411;45.656;11.740;2023-04-24T10:49:13;17.80;62.40
64817;DHT22;69411;45.656;11.740;2023-04-24T10:51:49;17.80;61.10
64817;DHT22;69411;45.656;11.740;2023-04-24T10:56:53;17.90;61.20
64817;DHT22;69411;45.656;11.740;2023-04-24T10:59:27;18.00;60.30
64817;DHT22;69411;45.656;11.740;2023-04-24T11:01:54;18.10;61.50
64817;DHT22;69411;45.656;11.740;2023-04-24T11:04:33;18.10;61.00
64817;DHT22;69411;45.656;11.740;2023-04-24T11:07:00;18.20;59.90
64817;DHT22;69411;45.656;11.740;2023-04-24T11:09:35;18.20;60.10
64817;DHT22;69411;45.656;11.740;2023-04-24T11:12:09;18.20;60.40
64817;DHT22;69411;45.656;11.740;2023-04-24T11:17:33;18.30;59.50
64817;DHT22;69411;45.656;11.740;2023-04-24T11:20:10;18.30;59.00
64817;DHT22;69411;45.656;11.740;2023-04-24T11:22:38;18.30;59.20
64817;DHT22;69411;45.656;11.740;2023-04-24T11:25:08;18.40;59.20
64817;DHT22;69411;45.656;11.740;2023-04-24T11:27:41;18.30;59.50
64817;DHT22;69411;45.656;11.740;2023-04-24T11:30:08;18.40;59.20
64817;DHT22;69411;45.656;11.740;2023-04-24T11:32:36;18.40;58.80
64817;DHT22;69411;45.656;11.740;2023-04-24T11:37:41;18.40;58.60
64817;DHT22;69411;45.656;11.740;2023-04-24T11:40:09;18.40;59.70
64817;DHT22;69411;45.656;11.740;2023-04-24T11:42:43;18.40;59.30
64817;DHT22;69411;45.656;11.740;2023-04-24T11:45:10;18.40;59.70
64817;DHT22;69411;45.656;11.740;2023-04-24T11:47:36;18.40;57.30
64817;DHT22;69411;45.656;11.740;2023-04-24T11:50:04;18.50;59.50
64817;DHT22;69411;45.656;11.740;2023-04-24T11:52:32;18.50;59.60
64817;DHT22;69411;45.656;11.740;2023-04-24T11:54:59;18.50;59.70
64817;DHT22;69411;45.656;11.740;2023-04-24T11:57:25;18.50;56.20
64817;DHT22;69411;45.656;11.740;2023-04-24T12:00:00;18.40;57.30
64817;DHT22;69411;45.656;11.740;2023-04-24T12:02:27;18.30;57.60
64817;DHT22;69411;45.656;11.740;2023-04-24T12:04:53;18.30;57.80
64817;DHT22;69411;45.656;11.740;2023-04-24T12:07:20;18.30;56.70
64817;DHT22;69411;45.656;11.740;2023-04-24T12:09:57;18.20;57.80
64817;DHT22;69411;45.656;11.740;2023-04-24T12:12:27;18.20;58.80
64817;DHT22;69411;45.656;11.740;2023-04-24T12:14:55;18.30;58.60
64817;DHT22;69411;45.656;11.740;2023-04-24T12:17:32;18.40;58.80
64817;DHT22;69411;45.656;11.740;2023-04-24T12:20:03;18.40;57.60
64817;DHT22;69411;45.656;11.740;2023-04-24T12:22:55;18.50;58.90
64817;DHT22;69411;45.656;11.740;2023-04-24T12:25:23;18.60;58.40
64817;DHT22;69411;45.656;11.740;2023-04-24T12:28:09;18.70;58.40
64817;DHT22;69411;45.656;11.740;2023-04-24T12:30:47;18.80;59.50
64817;DHT22;69411;45.656;11.740;2023-04-24T12:33:23;18.90;59.20
64817;DHT22;69411;45.656;11.740;2023-04-24T12:35:51;18.90;58.00
64817;DHT22;69411;45.656;11.740;2023-04-24T12:38:22;19.00;58.50
64817;DHT22;69411;45.656;11.740;2023-04-24T12:41:05;19.10;58.60
64817;DHT22;69411;45.656;11.740;2023-04-24T12:43:31;19.20;58.70
64817;DHT22;69411;45.656;11.740;2023-04-24T12:45:57;19.30;58.40
64817;DHT22;69411;45.656;11.740;2023-04-24T12:48:26;19.40;58.00
64817;DHT22;69411;45.656;11.740;2023-04-24T12:50:53;19.40;57.50
64817;DHT22;69411;45.656;11.740;2023-04-24T12:53:19;19.50;56.90
64817;DHT22;69411;45.656;11.740;2023-04-24T12:55:45;19.50;57.90
64817;DHT22;69411;45.656;11.740;2023-04-24T12:58:13;19.60;57.80
64817;DHT22;69411;45.656;11.740;2023-04-24T13:00:39;19.70;57.40
64817;DHT22;69411;45.656;11.740;2023-04-24T13:03:05;19.80;57.70
64817;DHT22;69411;45.656;11.740;2023-04-24T13:05:31;19.80;58.40
64817;DHT22;69411;45.656;11.740;2023-04-24T13:07:57;19.90;58.00
64817;DHT22;69411;45.656;11.740;2023-04-24T13:10:23;19.90;57.00
64817;DHT22;69411;45.656;11.740;2023-04-24T13:12:49;19.90;57.40
64817;DHT22;69411;45.656;11.740;2023-04-24T13:15:15;19.90;57.80
64817;DHT22;69411;45.656;11.740;2023-04-24T13:17:41;20.00;57.30
64817;DHT22;69411;45.656;11.740;2023-04-24T13:20:07;20.00;57.30
64817;DHT22;69411;45.656;11.740;2023-04-24T13:22:33;20.20;57.20
64817;DHT22;69411;45.656;11.740;2023-04-24T13:24:59;20.20;57.20
64817;DHT22;69411;45.656;11.740;2023-04-24T13:27:26;20.30;57.00
64817;DHT22;69411;45.656;11.740;2023-04-24T13:29:52;20.40;57.60
64817;DHT22;69411;45.656;11.740;2023-04-24T13:32:18;20.40;56.80
64817;DHT22;69411;45.656;11.740;2023-04-24T13:34:44;20.50;57.40
64817;DHT22;69411;45.656;11.740;2023-04-24T13:37:10;20.60;56.60
64817;DHT22;69411;45.656;11.740;2023-04-24T13:39:36;20.60;56.40
64817;DHT22;69411;45.656;11.740;2023-04-24T13:42:02;20.40;56.40
64817;DHT22;69411;45.656;11.740;2023-04-24T13:44:28;20.30;56.20
64817;DHT22;69411;45.656;11.740;2023-04-24T13:46:55;20.20;57.10
64817;DHT22;69411;45.656;11.740;2023-04-24T13:49:23;20.20;57.20
64817;DHT22;69411;45.656;11.740;2023-04-24T13:51:52;20.20;57.40
64817;DHT22;69411;45.656;11.740;2023-04-24T13:54:18;20.20;57.50
64817;DHT22;69411;45.656;11.740;2023-04-24T13:56:43;20.20;56.50
64817;DHT22;69411;45.656;11.740;2023-04-24T13:59:11;20.20;56.70
64817;DHT22;69411;45.656;11.740;2023-04-24T14:01:37;20.20;57.30
64817;DHT22;69411;45.656;11.740;2023-04-24T14:04:03;20.20;57.60
64817;DHT22;69411;45.656;11.740;2023-04-24T14:06:29;20.20;55.50
64817;DHT22;69411;45.656;11.740;2023-04-24T14:08:55;20.30;56.80
64817;DHT22;69411;45.656;11.740;2023-04-24T14:11:21;20.30;56.50
64817;DHT22;69411;45.656;11.740;2023-04-24T14:13:47;20.40;56.50
64817;DHT22;69411;45.656;11.740;2023-04-24T14:16:13;20.40;55.80
64817;DHT22;69411;45.656;11.740;2023-04-24T14:18:40;20.30;56.00
64817;DHT22;69411;45.656;11.740;2023-04-24T14:21:06;20.40;55.90
64817;DHT22;69411;45.656;11.740;2023-04-24T14:23:32;20.40;56.30
64817;DHT22;69411;45.656;11.740;2023-04-24T14:25:58;20.40;55.90
64817;DHT22;69411;45.656;11.740;2023-04-24T14:28:25;20.40;55.80
64817;DHT22;69411;45.656;11.740;2023-04-24T14:30:52;20.40;54.50
64817;DHT22;69411;45.656;11.740;2023-04-24T14:33:18;20.20;54.30
64817;DHT22;69411;45.656;11.740;2023-04-24T14:35:44;20.10;55.80
64817;DHT22;69411;45.656;11.740;2023-04-24T14:38:10;20.20;56.20
64817;DHT22;69411;45.656;11.740;2023-04-24T14:40:37;20.10;55.20
64817;DHT22;69411;45.656;11.740;2023-04-24T14:43:04;20.00;54.90
64817;DHT22;69411;45.656;11.740;2023-04-24T14:45:29;20.00;56.50
64817;DHT22;69411;45.656;11.740;2023-04-24T14:47:55;20.00;57.20
64817;DHT22;69411;45.656;11.740;2023-04-24T14:50:22;20.10;56.40
64817;DHT22;69411;45.656;11.740;2023-04-24T14:52:48;20.10;56.50
64817;DHT22;69411;45.656;11.740;2023-04-24T14:55:13;20.20;56.30
64817;DHT22;69411;45.656;11.740;2023-04-24T14:57:40;20.30;56.80
64817;DHT22;69411;45.656;11.740;2023-04-24T15:00:07;20.30;55.80
64817;DHT22;69411;45.656;11.740;2023-04-24T15:02:34;20.40;55.40
64817;DHT22;69411;45.656;11.740;2023-04-24T15:05:02;20.40;55.70
64817;DHT22;69411;45.656;11.740;2023-04-24T15:07:29;20.40;55.70
64817;DHT22;69411;45.656;11.740;2023-04-24T15:09:56;20.40;55.60
64817;DHT22;69411;45.656;11.740;2023-04-24T15:12:22;20.40;55.00
64817;DHT22;69411;45.656;11.740;2023-04-24T15:14:48;20.40;55.50
64817;DHT22;69411;45.656;11.740;2023-04-24T15:17:14;20.30;55.60
64817;DHT22;69411;45.656;11.740;2023-04-24T15:19:40;20.30;55.70
64817;DHT22;69411;45.656;11.740;2023-04-24T15:22:05;20.30;55.20